Time;durP1;ratioP1;P1;durP2;ratioP2;P2;SDS_P1;SDS_P2;PMS_P1;PMS_P2;Temp;Humidity;BMP_temperature;BMP_pressure;BME280_temperature;BME280_humidity;BME280_pressure;Samples;Min_cycle;Max_cycle;Signal;HPM_P1;HPM_P2
2023/08/17 00:01:55;;;;;;;7.78;2.15;;;17.30;99.90;;;;;;5025766;28;20030;-76
2023/08/17 00:04:21;;;;;;;8.38;2.72;;;17.30;99.90;;;;;;5026192;28;20068;-73
2023/08/17 00:06:47;;;;;;;4.57;2.47;;;17.30;99.90;;;;;;5024412;28;20030;-74
2023/08/17 00:09:13;;;;;;;8.25;2.28;;;17.20;99.90;;;;;;5023986;28;20030;-74
2023/08/17 00:11:39;;;;;;;9.23;2.38;;;17.20;99.90;;;;;;5024759;28;20038;-74
2023/08/17 00:14:05;;;;;;;5.60;2.45;;;17.20;99.90;;;;;;5022967;28;20045;-73
2023/08/17 00:16:31;;;;;;;12.13;2.53;;;17.20;99.90;;;;;;5025441;28;20084;-75
2023/08/17 00:18:57;;;;;;;9.23;2.35;;;17.20;99.90;;;;;;5024540;28;20419;-75
2023/08/17 00:21:22;;;;;;;8.10;2.38;;;17.20;99.90;;;;;;5024391;28;20033;-73
2023/08/17 00:23:49;;;;;;;7.93;2.53;;;17.20;99.90;;;;;;5025513;28;20045;-73
2023/08/17 00:26:14;;;;;;;6.60;2.47;;;17.20;99.90;;;;;;5025277;28;20026;-74
2023/08/17 00:28:40;;;;;;;6.22;2.20;;;17.20;99.90;;;;;;5025293;28;20044;-75
2023/08/17 00:31:06;;;;;;;6.70;2.33;;;17.20;99.90;;;;;;5025185;28;20363;-73
2023/08/17 00:33:31;;;;;;;6.55;2.40;;;17.20;99.90;;;;;;5025049;28;20065;-75
2023/08/17 00:35:57;;;;;;;8.15;2.35;;;17.20;99.90;;;;;;5023829;28;20090;-73
2023/08/17 00:38:23;;;;;;;9.93;2.50;;;17.20;99.90;;;;;;5025464;28;20030;-73
2023/08/17 00:40:48;;;;;;;7.13;2.80;;;17.20;99.90;;;;;;5025322;28;20030;-74
2023/08/17 00:43:14;;;;;;;9.90;2.50;;;17.20;99.90;;;;;;5023763;28;20030;-73
2023/08/17 00:45:41;;;;;;;5.85;2.25;;;17.10;99.90;;;;;;5024366;28;20026;-75
2023/08/17 00:48:07;;;;;;;6.72;2.50;;;17.10;99.90;;;;;;5033298;28;20030;-73
2023/08/17 00:50:35;;;;;;;6.20;2.72;;;17.20;99.90;;;;;;5006654;28;20041;-74
2023/08/17 00:53:01;;;;;;;7.57;3.03;;;17.20;99.90;;;;;;5012382;28;20441;-74
2023/08/17 00:55:28;;;;;;;8.65;2.45;;;17.20;99.90;;;;;;5025055;28;20038;-74
2023/08/17 00:57:55;;;;;;;9.63;2.63;;;17.20;99.90;;;;;;5023154;28;20053;-73
2023/08/17 01:00:21;;;;;;;9.60;2.30;;;17.20;99.90;;;;;;5023724;28;20056;-73
2023/08/17 01:02:48;;;;;;;8.52;2.35;;;17.10;99.90;;;;;;5024783;28;20105;-75
2023/08/17 01:05:13;;;;;;;6.45;2.40;;;17.20;99.90;;;;;;5023300;28;20034;-74
2023/08/17 01:07:39;;;;;;;7.35;2.67;;;17.10;99.90;;;;;;5023638;28;20120;-73
2023/08/17 01:10:06;;;;;;;8.32;2.60;;;17.20;99.90;;;;;;5023199;28;20037;-74
2023/08/17 01:12:42;;;;;;;8.30;2.22;;;17.10;99.90;;;;;;5022589;28;20113;-75
2023/08/17 01:15:10;;;;;;;9.10;2.30;;;17.10;99.90;;;;;;5023228;28;20046;-73
2023/08/17 01:18:02;;;;;;;8.90;2.60;;;17.10;99.90;;;;;;5023224;28;20037;-73
2023/08/17 01:20:29;;;;;;;7.70;2.40;;;17.00;99.90;;;;;;5022700;28;20041;-74
2023/08/17 01:22:58;;;;;;;6.32;2.65;;;17.00;99.90;;;;;;5024170;28;20030;-72
2023/08/17 01:25:24;;;;;;;9.98;2.60;;;17.00;99.90;;;;;;5022548;28;20112;-72
2023/08/17 01:27:49;;;;;;;6.13;2.38;;;17.00;99.90;;;;;;5023280;28;20028;-73
2023/08/17 01:30:17;;;;;;;8.02;2.30;;;17.00;99.90;;;;;;5023906;28;20041;-74
2023/08/17 01:33:03;;;;;;;6.25;2.20;;;17.00;99.90;;;;;;5037142;28;20032;-73
2023/08/17 01:35:39;;;;;;;6.50;2.40;;;16.90;99.90;;;;;;5036538;28;20092;-74
2023/08/17 01:38:09;;;;;;;7.90;2.30;;;17.00;99.90;;;;;;5022918;28;20037;-73
2023/08/17 01:40:36;;;;;;;9.18;2.70;;;17.00;99.90;;;;;;5024182;28;20025;-73
2023/08/17 01:43:03;;;;;;;8.55;2.67;;;17.00;99.90;;;;;;5024240;28;20029;-73
2023/08/17 01:45:28;;;;;;;4.43;2.13;;;17.00;99.90;;;;;;5024254;28;20036;-73
2023/08/17 01:47:57;;;;;;;6.55;2.35;;;17.00;99.90;;;;;;5024234;28;20046;-73
2023/08/17 01:50:22;;;;;;;6.85;3.00;;;17.00;99.90;;;;;;5023078;28;20402;-73
2023/08/17 01:52:50;;;;;;;9.68;3.13;;;17.00;99.90;;;;;;5023985;28;20057;-73
2023/08/17 01:55:16;;;;;;;6.60;2.67;;;16.90;99.90;;;;;;5023815;28;20092;-74
2023/08/17 01:57:42;;;;;;;8.43;2.85;;;16.90;99.90;;;;;;5022504;28;20471;-73
2023/08/17 02:00:10;;;;;;;5.38;2.22;;;16.90;99.90;;;;;;5024150;28;20054;-73
2023/08/17 02:02:36;;;;;;;6.38;2.38;;;16.90;99.90;;;;;;5023925;28;20038;-73
2023/08/17 02:05:02;;;;;;;9.25;2.42;;;16.90;99.90;;;;;;5023063;28;20053;-73
2023/08/17 02:07:28;;;;;;;10.25;2.67;;;16.90;99.90;;;;;;5022610;28;20061;-73
2023/08/17 02:09:54;;;;;;;5.50;2.30;;;16.90;99.90;;;;;;5023328;28;20030;-73
2023/08/17 02:12:19;;;;;;;9.27;2.40;;;17.00;99.90;;;;;;5022345;28;20057;-71
2023/08/17 02:14:45;;;;;;;8.73;2.45;;;17.00;99.90;;;;;;5022169;28;20096;-73
2023/08/17 02:17:11;;;;;;;8.43;2.67;;;17.00;99.90;;;;;;5022619;28;20393;-73
2023/08/17 02:19:36;;;;;;;4.93;2.40;;;17.00;99.90;;;;;;5023818;28;20022;-74
2023/08/17 02:22:02;;;;;;;12.00;2.83;;;16.90;99.90;;;;;;5022601;28;20116;-73
2023/08/17 02:24:28;;;;;;;8.85;2.55;;;16.90;99.90;;;;;;5023958;28;20022;-74
2023/08/17 02:26:53;;;;;;;6.55;2.20;;;16.90;99.90;;;;;;5027829;28;20083;-72
2023/08/17 02:29:19;;;;;;;9.43;2.50;;;16.90;99.90;;;;;;5027775;28;20120;-73
2023/08/17 02:31:45;;;;;;;5.85;2.30;;;16.90;99.90;;;;;;5023935;28;20030;-72
2023/08/17 02:34:10;;;;;;;5.22;2.05;;;16.90;99.90;;;;;;5023312;28;20104;-72
2023/08/17 02:36:36;;;;;;;9.57;2.38;;;16.90;99.90;;;;;;5022753;28;20106;-74
2023/08/17 02:39:03;;;;;;;7.30;2.40;;;16.90;99.90;;;;;;5026197;28;20029;-75
2023/08/17 02:41:30;;;;;;;8.13;2.33;;;16.90;99.90;;;;;;5027174;28;20072;-74
2023/08/17 02:43:56;;;;;;;7.28;2.58;;;16.90;99.90;;;;;;5026483;28;20030;-73
2023/08/17 02:46:21;;;;;;;8.55;2.35;;;16.90;99.90;;;;;;5027442;28;20026;-75
2023/08/17 02:48:47;;;;;;;6.00;2.05;;;16.90;99.90;;;;;;5027261;28;20030;-72
2023/08/17 02:51:13;;;;;;;7.82;2.40;;;16.90;99.90;;;;;;5025910;28;20030;-73
2023/08/17 02:53:39;;;;;;;10.32;2.28;;;16.90;99.90;;;;;;5026899;28;20064;-75
2023/08/17 02:56:05;;;;;;;9.40;2.70;;;16.90;99.90;;;;;;5025884;28;20030;-74
2023/08/17 02:58:30;;;;;;;13.93;3.63;;;16.90;99.90;;;;;;5026216;28;20030;-72
2023/08/17 03:00:56;;;;;;;9.00;2.63;;;16.90;99.90;;;;;;5026983;28;20033;-75
2023/08/17 03:03:22;;;;;;;8.50;2.83;;;16.90;99.90;;;;;;5025924;28;20786;-74
2023/08/17 03:05:47;;;;;;;7.82;2.30;;;16.90;99.90;;;;;;5027154;28;20026;-74
2023/08/17 03:08:13;;;;;;;8.13;2.40;;;16.90;99.90;;;;;;5026716;28;20054;-73
2023/08/17 03:10:38;;;;;;;8.15;2.45;;;16.90;99.90;;;;;;5027070;28;20033;-75
2023/08/17 03:13:04;;;;;;;7.45;2.13;;;16.90;99.90;;;;;;5025436;28;20026;-75
2023/08/17 03:15:30;;;;;;;7.97;2.20;;;16.80;99.90;;;;;;5026233;28;20053;-75
2023/08/17 03:17:55;;;;;;;7.55;2.70;;;16.80;99.90;;;;;;5025921;28;20375;-73
2023/08/17 03:20:21;;;;;;;11.48;2.95;;;16.80;99.90;;;;;;5026656;28;20026;-73
2023/08/17 03:22:47;;;;;;;7.95;2.30;;;16.80;99.90;;;;;;5022692;28;20033;-74
2023/08/17 03:25:12;;;;;;;5.03;2.13;;;16.90;99.90;;;;;;5037303;28;20104;-73
2023/08/17 03:27:38;;;;;;;8.68;2.55;;;16.90;99.90;;;;;;5026799;28;20076;-74
2023/08/17 03:30:05;;;;;;;5.10;2.05;;;16.80;99.90;;;;;;5026473;28;20032;-73
2023/08/17 03:32:30;;;;;;;5.75;2.40;;;16.80;99.90;;;;;;5026365;28;20025;-75
2023/08/17 03:34:56;;;;;;;6.25;2.30;;;16.80;99.90;;;;;;5025274;28;20042;-75
2023/08/17 03:37:22;;;;;;;5.90;2.10;;;16.80;99.90;;;;;;5025049;28;20026;-73
2023/08/17 03:39:47;;;;;;;8.20;2.58;;;16.80;99.90;;;;;;5025233;28;20026;-72
2023/08/17 03:42:13;;;;;;;9.30;2.50;;;16.80;99.90;;;;;;5025649;28;20125;-72
2023/08/17 03:44:38;;;;;;;7.57;2.28;;;16.80;99.90;;;;;;5026279;28;20476;-74
2023/08/17 03:47:04;;;;;;;6.85;2.78;;;16.80;99.90;;;;;;5026520;28;20379;-74
2023/08/17 03:49:29;;;;;;;7.05;2.60;;;16.80;99.90;;;;;;5024471;28;20030;-74
2023/08/17 03:51:55;;;;;;;6.60;2.72;;;16.80;99.90;;;;;;5025081;28;20098;-73
2023/08/17 03:54:21;;;;;;;6.43;2.60;;;16.80;99.90;;;;;;5024826;28;20038;-73
2023/08/17 03:56:46;;;;;;;7.00;2.65;;;16.80;99.90;;;;;;5026011;28;20042;-73
2023/08/17 03:59:12;;;;;;;9.35;2.60;;;16.80;99.90;;;;;;5023842;28;20478;-74
2023/08/17 04:01:37;;;;;;;8.98;3.03;;;16.80;99.90;;;;;;5025920;28;20038;-72
2023/08/17 04:04:03;;;;;;;5.63;2.35;;;16.80;99.90;;;;;;5025407;28;20062;-74
2023/08/17 04:06:30;;;;;;;6.40;2.63;;;16.70;99.90;;;;;;5026152;28;20474;-74
2023/08/17 04:08:56;;;;;;;5.72;2.60;;;16.70;99.90;;;;;;5025828;28;20029;-73
2023/08/17 04:11:21;;;;;;;8.15;2.40;;;16.70;99.90;;;;;;5024138;28;20623;-73
2023/08/17 04:13:47;;;;;;;5.22;2.58;;;16.70;99.90;;;;;;5024370;28;20509;-73
2023/08/17 04:16:13;;;;;;;4.63;2.53;;;16.70;99.90;;;;;;5025145;28;20025;-73
2023/08/17 04:18:38;;;;;;;5.13;2.38;;;16.70;99.90;;;;;;5025777;28;20034;-74
2023/08/17 04:21:04;;;;;;;11.30;2.47;;;16.70;99.90;;;;;;5024149;28;20054;-72
2023/08/17 04:23:30;;;;;;;5.47;2.33;;;16.70;99.90;;;;;;5025483;28;20026;-74
2023/08/17 04:25:55;;;;;;;5.32;2.50;;;16.70;99.90;;;;;;5025611;28;20025;-74
2023/08/17 04:28:21;;;;;;;7.82;2.53;;;16.70;99.90;;;;;;5023737;28;20033;-74
2023/08/17 04:30:47;;;;;;;5.63;2.60;;;16.70;99.90;;;;;;5024077;28;20040;-73
2023/08/17 04:33:12;;;;;;;7.03;2.90;;;16.70;99.90;;;;;;5023812;28;20148;-73
2023/08/17 04:35:39;;;;;;;6.00;2.40;;;16.70;99.90;;;;;;5023816;28;20107;-74
2023/08/17 04:38:04;;;;;;;9.05;2.85;;;16.70;99.90;;;;;;5025008;28;20117;-74
2023/08/17 04:40:30;;;;;;;7.32;2.35;;;16.70;99.90;;;;;;5024822;28;20032;-73
2023/08/17 04:42:56;;;;;;;11.85;2.75;;;16.60;99.90;;;;;;5023292;28;20029;-73
2023/08/17 04:45:22;;;;;;;10.90;3.10;;;16.60;99.90;;;;;;5017292;28;20041;-72
2023/08/17 04:47:49;;;;;;;7.28;2.85;;;16.60;99.90;;;;;;5023113;28;20097;-74
2023/08/17 04:50:16;;;;;;;7.22;2.83;;;16.60;99.90;;;;;;5023984;28;20033;-73
2023/08/17 04:52:43;;;;;;;5.88;2.92;;;16.60;99.90;;;;;;5021432;28;20029;-72
2023/08/17 04:55:09;;;;;;;7.15;3.20;;;16.60;99.90;;;;;;5019917;28;20478;-74
2023/08/17 04:57:34;;;;;;;7.20;2.78;;;16.60;99.90;;;;;;5016724;28;20044;-73
2023/08/17 05:00:00;;;;;;;10.40;3.13;;;16.50;99.90;;;;;;5020321;28;20030;-74
2023/08/17 05:02:25;;;;;;;9.75;3.50;;;16.50;99.90;;;;;;5021018;28;20068;-72
2023/08/17 05:04:51;;;;;;;8.18;3.15;;;16.40;99.90;;;;;;5022894;28;20022;-72
2023/08/17 05:07:17;;;;;;;6.88;3.20;;;16.40;99.90;;;;;;5024499;28;20034;-73
2023/08/17 05:09:42;;;;;;;6.18;3.25;;;16.40;99.90;;;;;;5024762;28;20093;-73
2023/08/17 05:12:08;;;;;;;12.45;3.50;;;16.40;99.90;;;;;;5022917;28;20030;-73
2023/08/17 05:14:33;;;;;;;8.70;3.55;;;16.40;99.90;;;;;;5015114;28;20038;-73
2023/08/17 05:16:59;;;;;;;9.60;3.70;;;16.40;99.90;;;;;;5024447;28;20018;-73
2023/08/17 05:19:25;;;;;;;9.25;3.75;;;16.40;99.90;;;;;;5022567;28;20094;-74
2023/08/17 05:21:51;;;;;;;9.68;3.85;;;16.40;99.90;;;;;;5021004;28;20033;-73
2023/08/17 05:24:17;;;;;;;11.77;3.95;;;16.30;99.90;;;;;;5021694;28;20396;-73
2023/08/17 05:26:43;;;;;;;12.30;4.18;;;16.30;99.90;;;;;;5024303;28;20045;-72
2023/08/17 05:29:09;;;;;;;6.93;3.80;;;16.30;99.90;;;;;;5024640;28;20129;-73
2023/08/17 05:31:34;;;;;;;8.88;3.90;;;16.30;99.90;;;;;;5020670;28;20505;-74
2023/08/17 05:34:00;;;;;;;9.70;3.90;;;16.20;99.90;;;;;;5018263;28;20084;-74
2023/08/17 05:36:25;;;;;;;9.15;3.95;;;16.20;99.90;;;;;;5020994;28;20036;-73
2023/08/17 05:38:51;;;;;;;8.27;3.97;;;16.20;99.90;;;;;;5018560;28;20497;-73
2023/08/17 05:41:17;;;;;;;10.68;4.28;;;16.20;99.90;;;;;;5021880;28;20106;-72
2023/08/17 05:43:43;;;;;;;10.38;4.57;;;16.30;99.90;;;;;;5021105;28;20037;-73
2023/08/17 05:46:08;;;;;;;9.48;4.32;;;16.30;99.90;;;;;;5022948;28;20026;-72
2023/08/17 05:48:34;;;;;;;9.13;4.50;;;16.30;99.90;;;;;;5022817;28;20033;-73
2023/08/17 05:51:00;;;;;;;10.45;4.68;;;16.30;99.90;;;;;;5020226;28;20072;-73
2023/08/17 05:53:25;;;;;;;10.10;4.13;;;16.30;99.90;;;;;;5024483;28;20028;-73
2023/08/17 05:55:51;;;;;;;9.00;3.85;;;16.30;99.90;;;;;;5027522;28;20030;-73
2023/08/17 05:58:16;;;;;;;8.98;4.20;;;16.40;99.90;;;;;;5024434;28;20030;-71
2023/08/17 06:00:42;;;;;;;12.27;4.35;;;16.40;99.90;;;;;;5024232;28;20025;-73
2023/08/17 06:03:08;;;;;;;13.27;4.10;;;16.40;99.90;;;;;;5024226;28;20034;-72
2023/08/17 06:05:34;;;;;;;10.27;4.25;;;16.40;99.90;;;;;;5022122;28;20022;-73
2023/08/17 06:08:00;;;;;;;6.85;4.10;;;16.40;99.90;;;;;;5023415;28;20083;-73
2023/08/17 06:10:26;;;;;;;11.48;4.78;;;16.50;99.90;;;;;;5021874;28;20077;-74
2023/08/17 06:12:55;;;;;;;9.38;3.97;;;16.50;99.90;;;;;;5027207;28;20030;-73
2023/08/17 06:15:22;;;;;;;9.23;4.28;;;16.50;99.90;;;;;;5027493;28;20057;-74
2023/08/17 06:17:49;;;;;;;7.18;4.10;;;16.50;99.90;;;;;;5026754;28;20053;-74
2023/08/17 06:20:16;;;;;;;8.07;4.18;;;16.60;99.90;;;;;;5027592;28;20022;-72
2023/08/17 06:22:42;;;;;;;8.35;3.67;;;16.70;99.90;;;;;;5027740;28;20022;-73
2023/08/17 06:25:08;;;;;;;7.20;3.67;;;16.70;99.90;;;;;;5027999;28;20048;-73
2023/08/17 06:27:34;;;;;;;11.52;4.30;;;16.70;99.90;;;;;;5026952;28;20026;-75
2023/08/17 06:30:00;;;;;;;12.43;3.95;;;16.80;99.90;;;;;;5027308;28;20525;-75
2023/08/17 06:32:26;;;;;;;10.07;3.85;;;16.80;99.90;;;;;;5025203;28;20026;-73
2023/08/17 06:34:54;;;;;;;10.95;3.85;;;16.80;99.90;;;;;;5025852;28;20054;-73
2023/08/17 06:37:19;;;;;;;9.20;3.88;;;16.80;99.90;;;;;;5026327;28;20061;-73
2023/08/17 06:39:45;;;;;;;8.07;4.18;;;16.90;99.90;;;;;;5026602;28;20060;-73
2023/08/17 06:42:11;;;;;;;9.00;4.22;;;16.90;99.90;;;;;;5025669;28;20033;-73
2023/08/17 06:44:36;;;;;;;7.15;3.97;;;17.00;99.90;;;;;;5021462;28;20037;-72
2023/08/17 06:47:02;;;;;;;8.05;3.90;;;17.00;99.90;;;;;;5013834;28;20029;-74
2023/08/17 06:49:27;;;;;;;6.63;3.60;;;17.10;99.90;;;;;;5013328;28;20545;-73
2023/08/17 06:51:53;;;;;;;8.73;4.00;;;17.10;99.90;;;;;;5021938;28;20061;-76
2023/08/17 06:54:19;;;;;;;9.95;3.60;;;17.20;99.90;;;;;;5009969;28;20035;-73
2023/08/17 06:56:44;;;;;;;9.40;4.05;;;17.20;99.90;;;;;;5026015;28;20037;-72
2023/08/17 06:59:10;;;;;;;6.68;4.07;;;17.30;99.90;;;;;;5016465;28;20045;-72
2023/08/17 07:01:36;;;;;;;8.63;4.07;;;17.30;99.90;;;;;;5025022;28;20034;-74
2023/08/17 07:04:01;;;;;;;9.27;3.88;;;17.40;99.90;;;;;;5030851;28;20029;-73
2023/08/17 07:06:28;;;;;;;10.52;3.80;;;17.40;99.90;;;;;;5026859;28;20808;-76
2023/08/17 07:08:54;;;;;;;8.27;3.80;;;17.40;99.90;;;;;;5027474;28;20041;-73
2023/08/17 07:11:20;;;;;;;5.97;3.83;;;17.40;99.90;;;;;;5026808;28;20053;-73
2023/08/17 07:13:46;;;;;;;7.68;3.75;;;17.40;99.90;;;;;;5019018;28;20061;-72
2023/08/17 07:16:12;;;;;;;11.13;3.67;;;17.40;99.90;;;;;;5023955;28;20030;-75
2023/08/17 07:18:38;;;;;;;7.85;3.75;;;17.40;99.90;;;;;;5015243;28;20030;-73
2023/08/17 07:21:04;;;;;;;10.68;3.97;;;17.30;99.90;;;;;;5024466;28;20041;-73
2023/08/17 07:23:29;;;;;;;6.85;4.03;;;17.30;99.90;;;;;;5024937;28;20387;-74
2023/08/17 07:25:55;;;;;;;9.23;3.92;;;17.40;99.90;;;;;;5025525;28;20030;-73
2023/08/17 07:28:20;;;;;;;8.25;3.70;;;17.40;99.90;;;;;;5022933;28;20030;-74
2023/08/17 07:30:46;;;;;;;10.68;4.40;;;17.40;99.90;;;;;;5023096;28;20030;-73
2023/08/17 07:33:11;;;;;;;9.20;4.10;;;17.50;99.90;;;;;;5025531;28;20077;-72
2023/08/17 07:35:37;;;;;;;9.77;4.45;;;17.50;99.90;;;;;;5020341;28;20080;-73
2023/08/17 07:38:03;;;;;;;8.40;3.90;;;17.60;99.90;;;;;;5014011;28;20026;-74
2023/08/17 07:40:28;;;;;;;8.55;3.70;;;17.70;99.90;;;;;;5012648;28;20034;-74
2023/08/17 07:42:54;;;;;;;9.32;3.85;;;17.80;99.90;;;;;;5018464;28;20033;-72
2023/08/17 07:45:19;;;;;;;7.18;4.35;;;17.90;99.90;;;;;;5017873;28;20062;-74
2023/08/17 07:47:45;;;;;;;7.60;4.00;;;17.90;99.90;;;;;;5024981;28;20034;-74
2023/08/17 07:50:11;;;;;;;12.20;4.18;;;18.00;99.90;;;;;;5025239;28;20022;-73
2023/08/17 07:52:36;;;;;;;7.43;4.00;;;18.10;99.90;;;;;;5023882;28;20498;-73
2023/08/17 07:55:03;;;;;;;11.68;4.03;;;18.20;99.90;;;;;;5013822;28;20072;-74
2023/08/17 07:57:30;;;;;;;7.10;3.72;;;18.30;99.90;;;;;;5032859;28;20037;-75
2023/08/17 07:59:55;;;;;;;6.47;3.67;;;18.40;99.90;;;;;;5016583;28;20048;-76
2023/08/17 08:02:21;;;;;;;8.82;3.90;;;18.50;99.90;;;;;;5019566;28;20065;-74
2023/08/17 08:04:46;;;;;;;7.45;3.90;;;18.50;99.90;;;;;;5018897;28;20030;-75
2023/08/17 08:07:12;;;;;;;7.82;3.83;;;18.60;99.90;;;;;;5016186;28;20022;-74
2023/08/17 08:09:38;;;;;;;8.98;4.10;;;18.60;99.90;;;;;;5025073;28;20037;-74
2023/08/17 08:12:04;;;;;;;8.57;3.92;;;18.60;99.90;;;;;;5023637;28;20034;-74
2023/08/17 08:14:30;;;;;;;8.70;3.90;;;18.50;99.90;;;;;;5017826;28;20057;-73
2023/08/17 08:16:55;;;;;;;9.75;4.35;;;18.50;99.90;;;;;;5022421;28;20045;-75
2023/08/17 08:19:21;;;;;;;5.78;3.75;;;18.50;99.90;;;;;;5022806;28;20054;-73
2023/08/17 08:21:46;;;;;;;5.45;3.80;;;18.60;99.90;;;;;;5024038;28;20061;-75
2023/08/17 08:24:12;;;;;;;8.73;3.80;;;18.60;99.90;;;;;;5025485;28;20022;-75
2023/08/17 08:26:38;;;;;;;5.72;3.90;;;18.60;99.90;;;;;;5024627;28;20022;-75
2023/08/17 08:29:04;;;;;;;9.82;4.30;;;18.60;99.90;;;;;;5022358;28;20092;-76
2023/08/17 08:31:30;;;;;;;9.18;4.30;;;18.60;99.90;;;;;;5012753;28;20034;-74
2023/08/17 08:33:56;;;;;;;6.50;3.83;;;18.70;99.90;;;;;;5015339;28;20046;-74
2023/08/17 08:36:21;;;;;;;7.90;3.85;;;18.70;99.90;;;;;;5023029;28;20088;-73
2023/08/17 08:38:47;;;;;;;6.38;3.78;;;18.70;99.90;;;;;;5024263;28;20493;-76
2023/08/17 08:41:12;;;;;;;7.05;3.53;;;18.70;99.90;;;;;;5011598;28;20038;-75
2023/08/17 08:43:41;;;;;;;9.60;3.30;;;18.70;99.90;;;;;;5011398;28;20035;-74
2023/08/17 08:46:07;;;;;;;6.78;3.60;;;18.70;99.90;;;;;;5009884;28;20033;-74
2023/08/17 08:48:34;;;;;;;6.13;3.10;;;18.70;99.90;;;;;;5018223;28;20048;-75
2023/08/17 08:51:00;;;;;;;5.38;3.60;;;18.70;99.90;;;;;;5024270;28;20018;-74
2023/08/17 08:53:38;;;;;;;6.10;3.30;;;18.80;99.90;;;;;;5020715;28;20034;-75
2023/08/17 08:56:07;;;;;;;7.68;3.88;;;18.70;99.90;;;;;;5025321;28;20046;-76
2023/08/17 08:58:34;;;;;;;8.00;4.00;;;18.60;99.90;;;;;;5017578;28;20033;-73
2023/08/17 09:01:02;;;;;;;9.45;3.97;;;18.50;99.90;;;;;;5024792;28;20030;-76
2023/08/17 09:03:28;;;;;;;6.50;3.67;;;18.50;99.90;;;;;;5015464;28;20033;-76
2023/08/17 09:05:57;;;;;;;6.93;3.92;;;18.40;99.90;;;;;;5022554;28;20048;-73
2023/08/17 09:08:28;;;;;;;6.35;3.67;;;18.40;99.90;;;;;;5022524;28;20033;-73
2023/08/17 09:10:54;;;;;;;5.32;3.33;;;18.40;99.90;;;;;;5023485;28;20025;-74
2023/08/17 09:13:20;;;;;;;7.15;3.10;;;18.40;99.90;;;;;;5024178;28;20037;-73
2023/08/17 09:15:46;;;;;;;5.45;3.30;;;18.40;99.90;;;;;;5023201;28;20050;-74
2023/08/17 09:18:12;;;;;;;7.22;3.10;;;18.30;99.90;;;;;;5020747;28;20033;-73
2023/08/17 09:20:42;;;;;;;6.18;2.85;;;18.30;99.90;;;;;;5020429;28;20112;-74
2023/08/17 09:23:16;;;;;;;3.70;2.38;;;18.30;99.90;;;;;;5024251;28;20034;-73
2023/08/17 09:25:43;;;;;;;3.67;2.53;;;18.30;99.90;;;;;;5020056;28;20049;-74
2023/08/17 09:28:14;;;;;;;5.97;2.45;;;18.20;99.90;;;;;;5024178;28;20026;-74
2023/08/17 09:30:57;;;;;;;3.35;2.65;;;18.20;99.90;;;;;;5040923;28;20022;-73
2023/08/17 09:33:24;;;;;;;4.38;2.55;;;18.20;99.90;;;;;;5028918;28;20414;-73
2023/08/17 09:35:51;;;;;;;3.72;2.83;;;18.10;99.90;;;;;;5023406;28;20045;-74
2023/08/17 09:38:17;;;;;;;4.45;2.90;;;18.10;99.90;;;;;;5023330;28;20506;-73
2023/08/17 09:40:43;;;;;;;3.60;2.40;;;18.10;99.90;;;;;;5022796;28;20045;-75
2023/08/17 09:43:09;;;;;;;4.95;2.10;;;18.10;99.90;;;;;;5023471;28;20029;-73
2023/08/17 09:45:37;;;;;;;3.08;2.10;;;18.10;99.90;;;;;;5024312;28;20029;-73
2023/08/17 09:48:03;;;;;;;4.20;2.20;;;18.10;99.90;;;;;;5023778;28;20086;-74
2023/08/17 09:50:29;;;;;;;7.63;2.80;;;18.00;99.90;;;;;;5022329;28;20026;-73
2023/08/17 09:52:55;;;;;;;6.20;2.08;;;18.10;99.90;;;;;;5024447;28;20056;-74
2023/08/17 09:55:24;;;;;;;6.30;2.30;;;18.10;99.90;;;;;;5024570;28;20037;-74
2023/08/17 09:57:51;;;;;;;5.05;2.20;;;18.10;99.90;;;;;;5023218;28;20503;-74
2023/08/17 10:00:17;;;;;;;4.60;2.30;;;18.10;99.90;;;;;;5022028;28;20718;-75
2023/08/17 10:02:45;;;;;;;4.30;2.17;;;18.10;99.90;;;;;;5022847;28;20030;-74
2023/08/17 10:05:12;;;;;;;9.23;2.50;;;18.20;99.90;;;;;;5022263;28;20033;-74
2023/08/17 10:07:43;;;;;;;4.68;2.30;;;18.20;99.90;;;;;;5023405;28;20034;-74
2023/08/17 10:10:12;;;;;;;5.05;2.55;;;18.30;99.90;;;;;;5024147;28;20042;-74
2023/08/17 10:13:00;;;;;;;7.43;2.28;;;18.40;99.90;;;;;;5023841;28;20494;-74
2023/08/17 10:15:30;;;;;;;4.43;2.10;;;18.40;99.90;;;;;;5003218;28;20043;-74
2023/08/17 10:18:02;;;;;;;3.53;1.85;;;18.50;99.90;;;;;;5023349;28;21174;-75
2023/08/17 10:20:30;;;;;;;4.10;2.05;;;18.50;99.90;;;;;;5043929;28;20037;-74
2023/08/17 10:23:14;;;;;;;2.42;1.83;;;18.60;99.90;;;;;;5029354;28;20025;-73
2023/08/17 10:25:42;;;;;;;3.75;2.10;;;18.60;99.90;;;;;;5022941;28;20041;-75
2023/08/17 10:28:09;;;;;;;5.32;1.70;;;18.60;99.90;;;;;;5022622;28;20098;-75
2023/08/17 10:30:36;;;;;;;3.40;1.83;;;18.70;99.90;;;;;;5022770;28;20026;-73
2023/08/17 10:33:04;;;;;;;5.53;2.00;;;18.60;99.90;;;;;;5021305;28;20113;-73
2023/08/17 10:35:33;;;;;;;3.72;1.52;;;18.50;99.90;;;;;;5019335;28;20037;-74
2023/08/17 10:37:59;;;;;;;2.30;1.50;;;18.50;99.90;;;;;;5015730;28;20026;-73
2023/08/17 10:40:28;;;;;;;3.63;1.90;;;18.40;99.90;;;;;;5023708;28;20026;-73
2023/08/17 10:42:55;;;;;;;2.10;1.65;;;18.40;99.90;;;;;;5023893;28;20034;-72
2023/08/17 10:45:25;;;;;;;4.20;1.65;;;18.50;99.90;;;;;;5022895;28;20550;-75
2023/08/17 10:48:19;;;;;;;3.92;1.67;;;18.50;99.90;;;;;;5028722;28;20064;-74
2023/08/17 10:51:02;;;;;;;4.60;2.00;;;18.60;99.90;;;;;;5007125;28;20053;-74
2023/08/17 10:53:35;;;;;;;4.28;1.70;;;18.70;99.90;;;;;;5015918;28;20093;-74
2023/08/17 10:56:01;;;;;;;4.70;1.88;;;18.70;99.90;;;;;;5023994;28;20099;-74
2023/08/17 10:58:32;;;;;;;6.00;2.20;;;18.70;99.90;;;;;;5025289;28;20085;-72
2023/08/17 11:00:57;;;;;;;4.63;2.20;;;18.70;99.90;;;;;;5022073;28;20029;-72
2023/08/17 11:03:23;;;;;;;4.28;2.20;;;18.70;99.90;;;;;;5028810;28;20084;-74
2023/08/17 11:05:55;;;;;;;3.53;1.90;;;18.70;99.90;;;;;;5026099;28;20113;-72
2023/08/17 11:08:34;;;;;;;5.85;1.88;;;18.70;99.90;;;;;;5022452;28;20038;-74
2023/08/17 11:11:05;;;;;;;4.95;1.88;;;18.70;99.90;;;;;;5024132;28;20088;-75
2023/08/17 11:13:34;;;;;;;4.40;2.05;;;18.80;99.90;;;;;;5027013;28;20033;-73
2023/08/17 11:16:01;;;;;;;5.10;2.20;;;18.70;99.90;;;;;;5022982;28;20042;-74
2023/08/17 11:18:27;;;;;;;3.63;2.10;;;18.70;99.90;;;;;;5038386;28;20061;-73
2023/08/17 11:20:54;;;;;;;4.78;2.17;;;18.70;99.90;;;;;;5022018;28;20034;-73
2023/08/17 11:23:20;;;;;;;31.67;3.22;;;18.70;99.90;;;;;;5024401;28;20030;-72
2023/08/17 11:25:46;;;;;;;4.53;2.03;;;18.70;99.90;;;;;;5024740;28;20038;-74
2023/08/17 11:28:14;;;;;;;3.50;2.00;;;18.60;99.90;;;;;;5026638;28;20030;-73
2023/08/17 11:30:40;;;;;;;2.63;1.90;;;18.70;99.90;;;;;;5022869;28;20085;-75
2023/08/17 11:33:08;;;;;;;4.40;2.25;;;18.70;99.90;;;;;;5034170;28;20103;-74
2023/08/17 11:35:34;;;;;;;3.15;1.95;;;18.80;99.90;;;;;;5022386;28;20061;-73
2023/08/17 11:38:00;;;;;;;5.25;2.40;;;18.90;99.90;;;;;;5026245;28;20037;-76
2023/08/17 11:40:26;;;;;;;3.60;1.95;;;19.00;99.90;;;;;;5019523;28;20089;-74
2023/08/17 11:42:53;;;;;;;4.78;2.40;;;19.20;99.90;;;;;;5018931;28;20140;-73
2023/08/17 11:45:19;;;;;;;2.28;1.83;;;19.20;99.90;;;;;;5023279;28;20495;-72
2023/08/17 11:47:46;;;;;;;2.58;1.60;;;19.30;99.90;;;;;;5025118;28;20050;-74
2023/08/17 11:50:13;;;;;;;3.63;1.90;;;19.30;99.90;;;;;;5025427;28;20044;-73
2023/08/17 11:52:39;;;;;;;3.08;1.70;;;19.40;99.90;;;;;;5025974;28;20025;-73
2023/08/17 11:55:06;;;;;;;3.17;1.90;;;19.40;99.90;;;;;;5024832;28;20483;-73
2023/08/17 11:57:32;;;;;;;3.42;2.10;;;19.40;99.90;;;;;;5025438;28;20022;-73
2023/08/17 12:00:00;;;;;;;3.20;1.73;;;19.40;99.90;;;;;;5023357;28;20105;-73
2023/08/17 12:02:27;;;;;;;2.40;2.00;;;19.40;99.90;;;;;;5014725;28;20483;-75
2023/08/17 12:04:55;;;;;;;4.32;1.88;;;19.40;99.90;;;;;;5014120;28;20041;-73
2023/08/17 12:07:26;;;;;;;4.32;2.28;;;19.30;99.90;;;;;;5020166;28;20370;-73
2023/08/17 12:09:53;;;;;;;5.28;2.80;;;19.30;99.90;;;;;;5020781;28;20037;-73
2023/08/17 12:12:21;;;;;;;5.07;2.80;;;19.40;99.90;;;;;;5025359;28;20030;-72
2023/08/17 12:14:48;;;;;;;4.75;2.85;;;19.40;99.90;;;;;;5025707;28;20061;-73
2023/08/17 12:17:18;;;;;;;6.68;3.30;;;19.40;99.90;;;;;;5013594;28;20483;-73
2023/08/17 12:19:44;;;;;;;4.28;2.65;;;19.40;99.90;;;;;;5021419;28;20026;-73
2023/08/17 12:22:13;;;;;;;6.72;3.38;;;19.30;99.90;;;;;;5020346;28;20037;-72
2023/08/17 12:24:38;;;;;;;6.28;3.28;;;19.30;99.90;;;;;;5014766;28;20030;-72
2023/08/17 12:27:06;;;;;;;7.00;3.60;;;19.20;99.90;;;;;;5022175;28;20034;-73
2023/08/17 12:29:32;;;;;;;6.47;3.53;;;19.20;99.90;;;;;;5013427;28;20026;-74
2023/08/17 12:32:07;;;;;;;5.57;3.20;;;19.10;99.90;;;;;;5015475;28;20041;-73
2023/08/17 12:34:33;;;;;;;5.97;3.40;;;19.00;99.90;;;;;;5012256;28;20050;-74
2023/08/17 12:37:02;;;;;;;4.45;3.40;;;19.00;99.90;;;;;;5015615;28;20033;-73
2023/08/17 12:39:29;;;;;;;7.78;3.92;;;18.90;99.90;;;;;;5020238;28;20034;-74
2023/08/17 12:41:54;;;;;;;5.43;3.30;;;18.80;99.90;;;;;;5023829;28;20033;-72
2023/08/17 12:44:20;;;;;;;6.47;3.92;;;18.80;99.90;;;;;;5023011;28;20029;-74